createdAt,value
2018-06-01T00:01:32.820Z,26.33
2018-06-01T00:04:00.604Z,24.23
2018-06-01T00:06:28.344Z,19.47
2018-06-01T00:08:56.128Z,18.13
2018-06-01T00:11:23.926Z,19.63
2018-06-01T00:13:52.468Z,26.70
2018-06-01T00:16:20.205Z,18.43
2018-06-01T00:18:47.969Z,15.97
2018-06-01T00:21:16.525Z,20.93
2018-06-01T00:23:45.046Z,16.30
2018-06-01T00:26:12.872Z,15.97
2018-06-01T00:28:41.447Z,23.00
2018-06-01T00:31:10.011Z,30.50
2018-06-01T00:33:37.870Z,31.63
2018-06-01T00:36:05.682Z,24.60
2018-06-01T00:38:33.478Z,23.13
2018-06-01T00:41:01.316Z,24.33
2018-06-01T00:43:29.128Z,25.93
2018-06-01T00:45:56.977Z,23.47
2018-06-01T00:48:24.829Z,19.93
2018-06-01T00:50:52.624Z,15.60
2018-06-01T00:53:20.411Z,21.80
2018-06-01T00:55:49.024Z,18.00
2018-06-01T00:58:16.844Z,23.13
2018-06-01T01:00:45.434Z,11.33
2018-06-01T01:03:13.260Z,15.10
2018-06-01T01:05:41.061Z,16.50
2018-06-01T01:08:08.883Z,21.17
2018-06-01T01:10:36.731Z,27.07
2018-06-01T01:13:04.586Z,20.33
2018-06-01T01:15:32.395Z,23.97
2018-06-01T01:18:00.210Z,14.90
2018-06-01T01:20:28.862Z,14.63
2018-06-01T01:22:56.681Z,17.23
2018-06-01T01:25:24.539Z,18.10
2018-06-01T01:27:52.377Z,19.30
2018-06-01T01:30:20.170Z,15.60
2018-06-01T01:32:48.031Z,22.87
2018-06-01T01:35:16.672Z,20.67
2018-06-01T01:37:44.466Z,16.03
2018-06-01T01:40:13.076Z,16.03
2018-06-01T01:42:40.911Z,19.70
2018-06-01T01:45:09.475Z,18.60
2018-06-01T01:47:37.325Z,19.10
2018-06-01T01:50:05.193Z,20.53
2018-06-01T01:52:33.010Z,27.60
2018-06-01T01:55:01.595Z,27.13
2018-06-01T01:57:30.225Z,22.40
2018-06-01T01:59:58.027Z,23.20
2018-06-01T02:02:26.645Z,24.60
2018-06-01T02:04:54.448Z,21.93
2018-06-01T02:07:22.264Z,26.70
2018-06-01T02:09:50.097Z,21.30
2018-06-01T02:12:17.898Z,25.13
2018-06-01T02:14:45.728Z,21.73
2018-06-01T02:17:13.567Z,22.77
2018-06-01T02:19:41.364Z,29.87
2018-06-01T02:22:09.153Z,28.53
2018-06-01T02:24:37.044Z,23.13
2018-06-01T02:27:05.670Z,22.47
2018-06-01T02:29:33.455Z,23.47
2018-06-01T02:32:02.059Z,21.30
2018-06-01T02:34:29.899Z,28.10
2018-06-01T02:36:58.453Z,19.50
2018-06-01T02:39:26.344Z,25.23
2018-06-01T02:41:54.901Z,21.50
2018-06-01T02:44:22.704Z,23.23
2018-06-01T02:46:51.328Z,22.80
2018-06-01T02:49:19.126Z,27.07
2018-06-01T02:51:47.058Z,19.53
2018-06-01T02:54:14.872Z,30.43
2018-06-01T02:56:42.686Z,17.97
2018-06-01T02:59:10.485Z,22.57
2018-06-01T03:01:38.307Z,17.13
2018-06-01T03:04:06.118Z,18.20
2018-06-01T03:09:33.113Z,16.03
2018-06-01T03:12:01.769Z,17.07
2018-06-01T03:14:29.586Z,19.10
2018-06-01T03:16:57.407Z,17.13
2018-06-01T03:19:25.287Z,18.90
2018-06-01T03:21:53.872Z,17.83
2018-06-01T03:24:22.411Z,17.30
2018-06-01T03:26:50.303Z,17.30
2018-06-01T03:29:18.122Z,24.30
2018-06-01T03:31:45.972Z,18.27
2018-06-01T03:34:13.856Z,19.97
2018-06-01T03:36:41.650Z,22.80
2018-06-01T03:39:09.477Z,22.87
2018-06-01T03:41:37.283Z,26.23
2018-06-01T03:44:05.180Z,26.30
2018-06-01T03:46:33.748Z,36.67
2018-06-01T03:49:01.556Z,27.87
2018-06-01T03:51:29.378Z,31.87
2018-06-01T03:53:57.170Z,31.97
2018-06-01T03:56:25.769Z,25.10
2018-06-01T03:58:53.554Z,28.30
2018-06-01T04:01:21.364Z,30.73
2018-06-01T04:03:49.977Z,31.23
2018-06-01T04:06:17.780Z,26.67
2018-06-01T04:08:45.649Z,27.67
2018-06-01T04:11:13.501Z,31.23
2018-06-01T04:13:41.310Z,39.70
2018-06-01T04:16:09.866Z,23.77
2018-06-01T04:18:37.699Z,25.57
2018-06-01T04:21:05.603Z,25.10
2018-06-01T04:23:33.391Z,16.07
2018-06-01T04:26:01.200Z,19.27
2018-06-01T04:28:28.981Z,20.17
2018-06-01T04:30:56.799Z,16.67
2018-06-01T04:33:25.428Z,16.10
2018-06-01T04:35:53.207Z,15.63
2018-06-01T04:38:21.044Z,18.70
2018-06-01T04:40:48.869Z,16.63
2018-06-01T04:43:17.410Z,18.27
2018-06-01T04:45:45.257Z,18.60
2018-06-01T04:48:13.122Z,18.63
2018-06-01T04:50:40.905Z,19.57
2018-06-01T04:53:08.710Z,20.27
2018-06-01T04:55:37.358Z,17.60
2018-06-01T04:58:05.182Z,21.47
2018-06-01T05:00:32.958Z,16.23
2018-06-01T05:03:00.767Z,20.33
2018-06-01T05:05:28.597Z,17.40
2018-06-01T05:07:56.420Z,12.37
2018-06-01T05:10:25.011Z,16.53
2018-06-01T05:12:53.668Z,13.93
2018-06-01T05:15:21.484Z,15.57
2018-06-01T05:17:49.307Z,15.93
2018-06-01T05:20:17.106Z,31.63
2018-06-01T05:22:44.921Z,41.63
2018-06-01T05:25:12.736Z,54.80
2018-06-01T05:27:41.308Z,46.33
2018-06-01T05:30:09.843Z,43.27
2018-06-01T05:32:37.688Z,44.03
2018-06-01T05:35:05.866Z,38.33
2018-06-01T05:37:33.739Z,26.40
2018-06-01T05:40:01.562Z,28.50
2018-06-01T05:42:30.121Z,21.17
2018-06-01T05:44:57.930Z,29.37
2018-06-01T05:47:25.818Z,31.37
2018-06-01T05:49:53.613Z,27.43
2018-06-01T05:52:21.424Z,25.30
2018-06-01T05:54:49.236Z,15.47
2018-06-01T05:57:17.028Z,22.10
2018-06-01T05:59:45.595Z,15.17
2018-06-01T06:02:13.436Z,26.40
2018-06-01T06:04:41.292Z,18.50
2018-06-01T06:07:09.122Z,17.13
2018-06-01T06:09:37.725Z,22.67
2018-06-01T06:12:05.530Z,18.90
2018-06-01T06:14:33.314Z,38.10
2018-06-01T06:17:01.104Z,36.20
2018-06-01T06:19:28.891Z,18.87
2018-06-01T06:21:56.677Z,26.00
2018-06-01T06:24:24.521Z,24.30
2018-06-01T06:26:52.331Z,27.70
2018-06-01T06:29:20.127Z,22.87
2018-06-01T06:31:48.061Z,17.47
2018-06-01T06:34:15.997Z,19.53
2018-06-01T06:36:43.997Z,25.63
2018-06-01T06:39:11.961Z,39.93
2018-06-01T06:41:39.775Z,19.70
2018-06-01T06:44:07.737Z,18.63
2018-06-01T06:46:35.568Z,24.53
2018-06-01T06:49:03.393Z,12.93
2018-06-01T06:51:31.211Z,12.40
2018-06-01T06:53:59.764Z,26.23
2018-06-01T06:56:27.562Z,16.30
2018-06-01T06:58:56.164Z,11.63
2018-06-01T07:01:23.976Z,25.77
2018-06-01T07:03:51.809Z,18.43
2018-06-01T07:06:19.638Z,21.17
2018-06-01T07:08:48.203Z,7.97
2018-06-01T07:11:15.976Z,17.77
2018-06-01T07:13:43.796Z,14.57
2018-06-01T07:16:11.610Z,7.70
2018-06-01T07:18:39.398Z,13.87
2018-06-01T07:21:07.233Z,14.30
2018-06-01T07:23:35.075Z,9.53
2018-06-01T07:26:02.867Z,11.13
2018-06-01T07:28:30.715Z,30.80
2018-06-01T07:30:58.519Z,17.37
2018-06-01T07:33:27.069Z,17.50
2018-06-01T07:35:54.910Z,12.40
2018-06-01T07:38:22.722Z,14.97
2018-06-01T07:40:51.300Z,17.30
2018-06-01T07:43:19.876Z,12.43
2018-06-01T07:45:47.670Z,11.37
2018-06-01T07:48:15.478Z,15.60
2018-06-01T07:50:43.291Z,19.23
2018-06-01T07:53:11.898Z,23.13
2018-06-01T07:55:39.716Z,10.43
2018-06-01T07:58:07.492Z,15.50
2018-06-01T08:00:36.116Z,12.87
2018-06-01T08:03:03.951Z,6.57
2018-06-01T08:05:32.484Z,15.03
2018-06-01T08:08:00.296Z,12.10
2018-06-01T08:10:28.924Z,11.67
2018-06-01T08:12:56.712Z,15.30
2018-06-01T08:15:24.565Z,13.30
2018-06-01T08:17:52.404Z,19.60
2018-06-01T08:20:20.195Z,12.90
2018-06-01T08:22:47.978Z,13.77
2018-06-01T08:25:15.876Z,11.60
2018-06-01T08:27:44.488Z,15.60
2018-06-01T08:30:12.287Z,15.17
2018-06-01T08:32:40.112Z,11.77
2018-06-01T08:35:07.921Z,12.33
2018-06-01T08:37:35.747Z,12.67
2018-06-01T08:40:03.646Z,10.07
2018-06-01T08:42:31.433Z,14.33
2018-06-01T08:44:59.280Z,10.37
2018-06-01T08:47:27.103Z,8.17
2018-06-01T08:49:55.292Z,14.77
2018-06-01T08:52:23.124Z,10.80
2018-06-01T08:54:50.938Z,9.30
2018-06-01T08:57:18.744Z,14.67
2018-06-01T08:59:47.283Z,18.17
2018-06-01T09:02:15.112Z,12.33
2018-06-01T09:04:42.891Z,13.20
2018-06-01T09:07:10.663Z,15.30
2018-06-01T09:09:38.469Z,9.63
2018-06-01T09:12:06.311Z,14.33
2018-06-01T09:14:34.101Z,11.83
2018-06-01T09:17:01.929Z,17.37
2018-06-01T09:19:29.728Z,12.87
2018-06-01T09:21:58.332Z,13.07
2018-06-01T09:24:26.913Z,24.40
2018-06-01T09:26:55.512Z,16.60
2018-06-01T09:29:24.112Z,10.03
2018-06-01T09:31:51.909Z,12.33
2018-06-01T09:34:19.695Z,10.00
2018-06-01T09:36:47.541Z,17.13
2018-06-01T09:39:15.354Z,22.60
2018-06-01T09:41:43.936Z,15.63
2018-06-01T09:44:12.539Z,15.77
2018-06-01T09:46:40.421Z,8.57
2018-06-01T09:49:08.627Z,15.23
2018-06-01T09:51:36.656Z,10.37
2018-06-01T09:54:04.495Z,14.70
2018-06-01T09:56:33.108Z,15.10
2018-06-01T09:59:00.915Z,13.63
2018-06-01T10:01:28.720Z,12.00
2018-06-01T10:03:56.530Z,14.87
2018-06-01T10:06:24.372Z,15.73
2018-06-01T10:08:52.175Z,12.33
2018-06-01T10:11:19.997Z,12.17
2018-06-01T10:13:47.796Z,16.47
2018-06-01T10:16:15.610Z,14.47
2018-06-01T10:18:43.443Z,16.20
2018-06-01T10:21:12.026Z,15.90
2018-06-01T10:23:39.855Z,13.57
2018-06-01T10:26:07.652Z,11.67
2018-06-01T10:28:35.503Z,17.27
2018-06-01T10:31:03.318Z,11.70
2018-06-01T10:33:31.122Z,11.27
2018-06-01T10:35:58.932Z,13.23
2018-06-01T10:38:27.476Z,23.17
2018-06-01T10:40:55.309Z,11.23
2018-06-01T10:43:23.188Z,11.40
2018-06-01T10:45:51.000Z,12.40
2018-06-01T10:48:18.783Z,13.13
2018-06-01T10:50:47.344Z,27.83
2018-06-01T10:53:15.382Z,10.77
2018-06-01T10:55:43.983Z,8.50
2018-06-01T10:58:11.810Z,13.10
2018-06-01T11:00:39.635Z,10.70
2018-06-01T11:03:08.213Z,19.00
2018-06-01T11:05:36.056Z,14.17
2018-06-01T11:08:03.931Z,16.40
2018-06-01T11:10:31.723Z,18.43
2018-06-01T11:13:00.263Z,17.13
2018-06-01T11:15:28.074Z,18.20
2018-06-01T11:17:57.103Z,11.10
2018-06-01T11:20:24.946Z,11.77
2018-06-01T11:22:52.809Z,12.40
2018-06-01T11:25:20.607Z,12.40
2018-06-01T11:27:48.405Z,25.13
2018-06-01T11:30:16.204Z,14.40
2018-06-01T11:32:44.801Z,12.53
2018-06-01T11:35:13.345Z,10.50
2018-06-01T11:37:41.187Z,10.40
2018-06-01T11:40:08.976Z,20.00
2018-06-01T11:42:36.760Z,11.03
2018-06-01T11:45:05.375Z,14.60
2018-06-01T11:47:33.197Z,14.23
2018-06-01T11:50:02.382Z,28.80
2018-06-01T11:52:30.263Z,9.07
2018-06-01T11:54:58.818Z,14.50
2018-06-01T11:57:26.722Z,13.80
2018-06-01T11:59:55.284Z,16.80
2018-06-01T12:02:23.066Z,11.10
2018-06-01T12:04:51.659Z,17.17
2018-06-01T12:07:19.448Z,10.53
2018-06-01T12:09:47.259Z,7.73
2018-06-01T12:12:15.110Z,12.13
2018-06-01T12:14:42.875Z,12.13
2018-06-01T12:17:10.693Z,9.97
2018-06-01T12:19:38.481Z,12.00
2018-06-01T12:22:06.263Z,11.30
2018-06-01T12:24:34.085Z,12.27
2018-06-01T12:27:01.893Z,14.37
2018-06-01T12:29:29.782Z,9.90
2018-06-01T12:31:57.566Z,8.23
2018-06-01T12:34:26.115Z,11.30
2018-06-01T12:36:54.707Z,15.30
2018-06-01T12:39:22.497Z,12.33
2018-06-01T12:41:51.165Z,8.37
2018-06-01T12:44:19.751Z,15.83
2018-06-01T12:46:48.325Z,11.90
2018-06-01T12:49:16.176Z,17.00
2018-06-01T12:51:43.959Z,22.13
2018-06-01T12:54:11.751Z,11.97
2018-06-01T12:56:40.328Z,11.37
2018-06-01T12:59:08.916Z,10.07
2018-06-01T13:01:36.791Z,9.23
2018-06-01T13:04:04.718Z,14.57
2018-06-01T13:06:32.506Z,8.53
2018-06-01T13:09:01.157Z,8.67
2018-06-01T13:11:28.961Z,9.07
2018-06-01T13:13:57.511Z,17.10
2018-06-01T13:16:26.279Z,9.30
2018-06-01T13:18:55.075Z,10.97
2018-06-01T13:21:22.908Z,8.40
2018-06-01T13:23:50.770Z,11.57
2018-06-01T13:26:20.605Z,11.93
2018-06-01T13:28:49.141Z,8.40
2018-06-01T13:31:18.895Z,16.00
2018-06-01T13:33:48.906Z,14.20
2018-06-01T13:36:19.511Z,7.57
2018-06-01T13:38:48.128Z,10.77
2018-06-01T13:41:15.932Z,8.50
2018-06-01T13:43:45.236Z,10.20
2018-06-01T13:46:16.042Z,10.67
2018-06-01T13:48:43.913Z,13.80
2018-06-01T13:51:11.736Z,11.03
2018-06-01T13:53:39.549Z,11.57
2018-06-01T13:56:07.414Z,13.43
2018-06-01T13:58:35.339Z,11.83
2018-06-01T14:01:03.189Z,9.90
2018-06-01T14:03:31.011Z,18.10
2018-06-01T14:05:58.820Z,11.70
2018-06-01T14:08:26.655Z,14.87
2018-06-01T14:10:54.465Z,11.57
2018-06-01T14:13:22.275Z,15.73
2018-06-01T14:15:50.093Z,18.10
2018-06-01T14:18:17.902Z,11.60
2018-06-01T14:20:45.742Z,9.07
2018-06-01T14:23:13.538Z,11.50
2018-06-01T14:25:42.433Z,10.27
2018-06-01T14:28:10.398Z,13.70
2018-06-01T14:30:38.200Z,8.87
2018-06-01T14:33:06.730Z,11.83
2018-06-01T14:35:34.561Z,15.73
2018-06-01T14:38:02.372Z,10.07
2018-06-01T14:40:30.247Z,12.60
2018-06-01T14:42:58.071Z,11.10
2018-06-01T14:45:30.957Z,12.20
2018-06-01T14:47:58.792Z,12.13
2018-06-01T14:50:26.628Z,14.33
2018-06-01T14:52:54.434Z,10.37
2018-06-01T14:55:22.285Z,12.20
2018-06-01T14:57:50.863Z,14.33
2018-06-01T15:00:19.473Z,7.53
2018-06-01T15:02:47.257Z,11.93
2018-06-01T15:05:15.035Z,10.27
2018-06-01T15:07:42.846Z,14.27
2018-06-01T15:10:13.291Z,20.53
2018-06-01T15:12:41.104Z,10.83
2018-06-01T15:15:08.948Z,9.20
2018-06-01T15:17:36.724Z,9.53
2018-06-01T15:20:04.558Z,9.20
2018-06-01T15:22:32.356Z,10.97
2018-06-01T15:25:00.180Z,11.73
2018-06-01T15:27:28.052Z,9.83
2018-06-01T15:29:55.854Z,8.43
2018-06-01T15:32:23.661Z,10.33
2018-06-01T15:34:52.233Z,8.80
2018-06-01T15:37:20.785Z,10.70
2018-06-01T15:39:48.592Z,8.97
2018-06-01T15:42:17.188Z,13.63
2018-06-01T15:44:45.141Z,16.43
2018-06-01T15:47:12.980Z,12.13
2018-06-01T15:49:40.801Z,14.07
2018-06-01T15:52:08.582Z,12.30
2018-06-01T15:54:36.357Z,12.83
2018-06-01T15:57:04.203Z,13.77
2018-06-01T15:59:32.004Z,11.23
2018-06-01T16:01:59.793Z,21.23
2018-06-01T16:04:28.384Z,12.70
2018-06-01T16:06:56.961Z,10.83
2018-06-01T16:09:25.553Z,9.77
2018-06-01T16:11:53.387Z,8.50
2018-06-01T16:14:21.177Z,13.33
2018-06-01T16:16:49.761Z,12.53
2018-06-01T16:19:18.687Z,12.37
2018-06-01T16:21:46.511Z,10.10
2018-06-01T16:24:14.314Z,9.80
2018-06-01T16:26:42.136Z,17.73
2018-06-01T16:29:10.705Z,18.17
2018-06-01T16:31:38.498Z,17.30
2018-06-01T16:34:07.059Z,11.70
2018-06-01T16:36:34.856Z,14.33
2018-06-01T16:39:02.671Z,12.93
2018-06-01T16:41:30.497Z,21.07
2018-06-01T16:43:58.298Z,15.80
2018-06-01T16:46:26.081Z,15.00
2018-06-01T16:48:53.921Z,9.20
2018-06-01T16:51:21.718Z,12.83
2018-06-01T16:53:50.288Z,15.80
2018-06-01T16:56:18.135Z,8.90
2018-06-01T16:58:45.993Z,8.80
2018-06-01T17:01:13.798Z,11.30
2018-06-01T17:03:42.464Z,9.10
2018-06-01T17:06:10.434Z,15.00
2018-06-01T17:08:38.200Z,10.67
2018-06-01T17:11:06.021Z,8.87
2018-06-01T17:13:33.835Z,9.90
2018-06-01T17:16:01.662Z,10.40
2018-06-01T17:18:29.484Z,18.07
2018-06-01T17:20:58.055Z,9.87
2018-06-01T17:23:25.856Z,9.40
2018-06-01T17:25:53.712Z,14.80
2018-06-01T17:28:21.512Z,10.90
2018-06-01T17:30:49.321Z,12.73
2018-06-01T17:33:18.063Z,9.80
2018-06-01T17:35:45.884Z,13.93
2018-06-01T17:38:14.461Z,11.00
2018-06-01T17:40:43.057Z,10.20
2018-06-01T17:43:10.847Z,15.80
2018-06-01T17:45:38.653Z,18.33
2018-06-01T17:48:06.511Z,21.33
2018-06-01T17:50:34.331Z,31.27
2018-06-01T17:53:02.132Z,13.50
2018-06-01T17:55:30.025Z,13.20
2018-06-01T17:57:58.798Z,10.60
2018-06-01T18:00:26.632Z,9.67
2018-06-01T18:02:54.497Z,18.13
2018-06-01T18:05:22.541Z,12.30
2018-06-01T18:07:51.141Z,13.23
2018-06-01T18:10:19.002Z,11.40
2018-06-01T18:12:46.893Z,13.00
2018-06-01T18:15:14.727Z,11.07
2018-06-01T18:17:42.557Z,11.00
2018-06-01T18:20:11.111Z,16.87
2018-06-01T18:22:38.968Z,11.50
2018-06-01T18:25:06.800Z,24.90
2018-06-01T18:27:35.405Z,11.57
2018-06-01T18:30:03.319Z,20.87
2018-06-01T18:32:31.308Z,13.03
2018-06-01T18:34:59.204Z,9.77
2018-06-01T18:37:27.167Z,9.53
2018-06-01T18:39:55.012Z,11.77
2018-06-01T18:42:23.633Z,15.23
2018-06-01T18:44:51.832Z,10.83
2018-06-01T18:47:19.620Z,11.00
2018-06-01T18:49:47.434Z,13.40
2018-06-01T18:52:15.260Z,23.23
2018-06-01T18:54:43.877Z,13.00
2018-06-01T18:57:11.800Z,12.30
2018-06-01T18:59:40.538Z,13.60
2018-06-01T19:02:08.461Z,13.20
2018-06-01T19:04:37.069Z,15.67
2018-06-01T19:07:04.883Z,11.50
2018-06-01T19:09:32.717Z,12.33
2018-06-01T19:12:00.559Z,14.77
2018-06-01T19:14:29.124Z,11.70
2018-06-01T19:16:56.915Z,12.87
2018-06-01T19:19:25.485Z,14.03
2018-06-01T19:21:54.049Z,14.73
2018-06-01T19:24:21.884Z,13.00
2018-06-01T19:26:49.709Z,16.93
2018-06-01T19:29:17.510Z,16.93
2018-06-01T19:31:45.301Z,12.53
2018-06-01T19:34:13.286Z,12.13
2018-06-01T19:36:41.091Z,12.53
2018-06-01T19:39:08.888Z,10.97
2018-06-01T19:41:36.743Z,19.23
2018-06-01T19:44:04.564Z,11.80
2018-06-01T19:46:33.555Z,14.00
2018-06-01T19:49:02.169Z,16.17
2018-06-01T19:51:30.810Z,13.63
2018-06-01T19:53:59.391Z,11.87
2018-06-01T19:56:27.352Z,13.27
2018-06-01T19:58:55.979Z,11.23
2018-06-01T20:01:23.796Z,12.47
2018-06-01T20:03:51.614Z,14.43
2018-06-01T20:06:19.410Z,12.40
2018-06-01T20:08:47.200Z,13.10
2018-06-01T20:11:15.820Z,28.20
2018-06-01T20:13:43.632Z,16.90
2018-06-01T20:16:11.462Z,20.23
2018-06-01T20:18:39.397Z,16.33
2018-06-01T20:21:07.340Z,17.90
2018-06-01T20:23:35.176Z,22.43
2018-06-01T20:26:03.021Z,20.20
2018-06-01T20:28:30.891Z,19.73
2018-06-01T20:30:58.798Z,17.63
2018-06-01T20:33:26.685Z,19.20
2018-06-01T20:35:55.254Z,15.63
2018-06-01T20:38:23.961Z,11.80
2018-06-01T20:40:53.569Z,18.50
2018-06-01T20:43:22.194Z,13.10
2018-06-01T20:45:50.169Z,15.70
2018-06-01T20:48:18.107Z,13.73
2018-06-01T20:50:46.040Z,23.57
2018-06-01T20:53:14.639Z,13.27
2018-06-01T20:55:43.235Z,16.87
2018-06-01T20:58:11.789Z,21.63
2018-06-01T21:00:40.409Z,14.63
2018-06-01T21:03:08.229Z,12.67
2018-06-01T21:05:36.031Z,13.80
2018-06-01T21:08:04.625Z,12.07
2018-06-01T21:10:32.460Z,12.40
2018-06-01T21:13:01.080Z,13.40
2018-06-01T21:15:29.097Z,11.53
2018-06-01T21:17:56.904Z,13.40
2018-06-01T21:20:25.482Z,16.77
2018-06-01T21:22:54.072Z,13.40
2018-06-01T21:25:22.772Z,14.70
2018-06-01T21:27:50.676Z,15.57
2018-06-01T21:30:18.511Z,12.40
2018-06-01T21:32:46.519Z,14.77
2018-06-01T21:35:14.339Z,17.37
2018-06-01T21:37:42.170Z,14.10
2018-06-01T21:40:10.753Z,12.00
2018-06-01T21:42:39.758Z,11.33
2018-06-01T21:45:07.613Z,14.03
2018-06-01T21:47:36.389Z,13.00
2018-06-01T21:50:04.261Z,15.00
2018-06-01T21:52:32.934Z,15.70
2018-06-01T21:55:00.768Z,13.10
2018-06-01T21:57:28.566Z,15.27
2018-06-01T21:59:56.438Z,10.60
2018-06-01T22:02:24.246Z,10.27
2018-06-01T22:04:52.028Z,18.73
2018-06-01T22:07:19.833Z,17.50
2018-06-01T22:09:47.788Z,13.57
2018-06-01T22:12:15.650Z,16.63
2018-06-01T22:14:43.468Z,14.80
2018-06-01T22:17:12.067Z,15.07
2018-06-01T22:19:39.890Z,12.20
2018-06-01T22:22:07.775Z,11.67
2018-06-01T22:24:36.373Z,13.80
2018-06-01T22:27:04.204Z,11.00
2018-06-01T22:29:32.821Z,16.40
2018-06-01T22:32:00.606Z,11.53
2018-06-01T22:34:29.192Z,12.33
2018-06-01T22:36:57.015Z,11.57
2018-06-01T22:39:25.571Z,11.83
2018-06-01T22:41:53.393Z,9.93
2018-06-01T22:44:21.254Z,14.03
2018-06-01T22:46:49.115Z,13.17
2018-06-01T22:49:16.988Z,11.20
2018-06-01T22:51:45.545Z,11.77
2018-06-01T22:54:14.099Z,15.30
2018-06-01T22:56:42.252Z,11.60
2018-06-01T22:59:10.037Z,12.70
2018-06-01T23:01:37.886Z,14.43
2018-06-01T23:04:05.729Z,14.90
2018-06-01T23:06:33.569Z,16.57
2018-06-01T23:09:02.125Z,14.60
2018-06-01T23:11:29.978Z,13.67
2018-06-01T23:13:57.774Z,14.07
2018-06-01T23:16:26.348Z,17.20
2018-06-01T23:18:54.946Z,13.33
2018-06-01T23:21:23.513Z,13.30
2018-06-01T23:23:51.400Z,11.83
2018-06-01T23:26:19.721Z,10.80
2018-06-01T23:28:47.560Z,14.30
2018-06-01T23:31:15.463Z,16.70
2018-06-01T23:33:43.312Z,15.53
2018-06-01T23:36:11.110Z,11.07
2018-06-01T23:38:38.908Z,9.47
2018-06-01T23:41:07.507Z,9.90
2018-06-01T23:43:35.295Z,9.33
2018-06-01T23:46:03.144Z,10.00
2018-06-01T23:48:30.974Z,15.63
2018-06-01T23:50:59.548Z,8.03
2018-06-01T23:53:28.147Z,10.70
2018-06-01T23:55:56.712Z,8.40
2018-06-01T23:58:25.333Z,8.57
